createdAt,value
2019-03-21T00:26:46.130Z,1030.89
2019-03-21T00:26:46.669Z,1030.97
2019-03-21T00:26:47.268Z,1031.04
2019-03-21T00:26:47.920Z,1031.04
2019-03-21T00:26:48.472Z,1031.07
2019-03-21T00:26:49.067Z,1031.06
2019-03-21T00:26:49.667Z,1031.06
2019-03-21T00:27:43.725Z,1030.77
2019-03-21T00:27:44.322Z,1030.94
2019-03-21T00:27:44.922Z,1031.02
2019-03-21T00:27:45.520Z,1031.03
2019-03-21T00:27:46.123Z,1031.08
2019-03-21T00:27:46.721Z,1031.09
2019-03-21T00:27:47.321Z,1031.08
2019-03-21T00:28:41.377Z,1030.81
2019-03-21T00:28:41.974Z,1030.87
2019-03-21T00:28:42.573Z,1030.98
2019-03-21T00:28:43.173Z,1031.01
2019-03-21T00:28:43.773Z,1031.07
2019-03-21T00:28:44.374Z,1031.06
2019-03-21T00:28:45.035Z,1031.07
2019-03-21T00:29:39.030Z,1030.80
2019-03-21T00:29:39.626Z,1030.92
2019-03-21T00:29:40.229Z,1030.98
2019-03-21T00:29:40.827Z,1031.03
2019-03-21T00:29:41.425Z,1031.06
2019-03-21T00:29:42.025Z,1031.06
2019-03-21T00:29:42.626Z,1031.06
2019-03-21T00:30:36.708Z,1030.77
2019-03-21T00:30:37.278Z,1030.83
2019-03-21T00:30:37.878Z,1030.93
2019-03-21T00:30:38.478Z,1031.01
2019-03-21T00:30:39.084Z,1031.00
2019-03-21T00:30:39.678Z,1031.01
2019-03-21T00:30:40.281Z,1031.06
2019-03-21T00:31:34.337Z,1030.77
2019-03-21T00:31:34.934Z,1030.82
2019-03-21T00:31:35.531Z,1030.90
2019-03-21T00:31:36.131Z,1030.96
2019-03-21T00:31:36.730Z,1030.97
2019-03-21T00:31:37.331Z,1031.02
2019-03-21T00:31:37.930Z,1031.02
2019-03-21T00:32:31.988Z,1030.81
2019-03-21T00:32:32.583Z,1030.85
2019-03-21T00:32:33.185Z,1030.94
2019-03-21T00:32:33.782Z,1030.98
2019-03-21T00:32:34.382Z,1031.00
2019-03-21T00:32:34.981Z,1031.04
2019-03-21T00:32:35.582Z,1031.06
2019-03-21T00:33:29.638Z,1030.78
2019-03-21T00:33:30.235Z,1030.90
2019-03-21T00:33:30.835Z,1030.95
2019-03-21T00:33:31.435Z,1030.98
2019-03-21T00:33:32.034Z,1031.01
2019-03-21T00:33:32.633Z,1031.04
2019-03-21T00:33:33.241Z,1031.06
2019-03-21T00:34:27.289Z,1030.82
2019-03-21T00:34:27.885Z,1030.90
2019-03-21T00:34:28.487Z,1030.95
2019-03-21T00:34:29.086Z,1031.03
2019-03-21T00:34:29.688Z,1031.05
2019-03-21T00:34:30.287Z,1031.04
2019-03-21T00:34:30.886Z,1031.07
2019-03-21T00:35:24.968Z,1030.83
2019-03-21T00:35:25.539Z,1030.89
2019-03-21T00:35:26.140Z,1030.98
2019-03-21T00:35:26.738Z,1031.04
2019-03-21T00:35:27.337Z,1031.04
2019-03-21T00:35:27.978Z,1031.06
2019-03-21T00:35:28.537Z,1031.07
2019-03-21T00:36:22.594Z,1030.87
2019-03-21T00:36:23.190Z,1030.93
2019-03-21T00:36:23.790Z,1031.00
2019-03-21T00:36:24.397Z,1031.03
2019-03-21T00:36:24.989Z,1031.06
2019-03-21T00:36:25.597Z,1031.05
2019-03-21T00:36:26.189Z,1031.07
2019-03-21T00:37:20.245Z,1030.85
2019-03-21T00:37:20.843Z,1030.88
2019-03-21T00:37:21.446Z,1030.93
2019-03-21T00:37:22.054Z,1030.98
2019-03-21T00:37:22.675Z,1031.01
2019-03-21T00:37:23.240Z,1031.07
2019-03-21T00:37:23.841Z,1031.03
2019-03-21T00:38:17.898Z,1030.86
2019-03-21T00:38:18.497Z,1030.88
2019-03-21T00:38:19.104Z,1030.97
2019-03-21T00:38:19.693Z,1031.05
2019-03-21T00:38:20.294Z,1031.05
2019-03-21T00:38:20.900Z,1031.05
2019-03-21T00:38:21.494Z,1031.08
2019-03-21T00:39:15.550Z,1030.83
2019-03-21T00:39:16.158Z,1030.89
2019-03-21T00:39:16.749Z,1030.94
2019-03-21T00:39:17.346Z,1030.97
2019-03-21T00:39:17.946Z,1030.99
2019-03-21T00:39:18.548Z,1031.02
2019-03-21T00:39:19.146Z,1031.05
2019-03-21T00:40:13.228Z,1030.82
2019-03-21T00:40:13.798Z,1030.88
2019-03-21T00:40:14.398Z,1030.94
2019-03-21T00:40:14.998Z,1030.95
2019-03-21T00:40:15.597Z,1030.99
2019-03-21T00:40:16.197Z,1031.03
2019-03-21T00:40:16.796Z,1031.04
2019-03-21T00:41:10.853Z,1030.82
2019-03-21T00:41:11.450Z,1030.85
2019-03-21T00:41:12.049Z,1030.87
2019-03-21T00:41:12.649Z,1030.94
2019-03-21T00:41:13.252Z,1030.98
2019-03-21T00:41:13.850Z,1031.00
2019-03-21T00:41:14.450Z,1031.02
2019-03-21T00:42:08.505Z,1030.80
2019-03-21T00:42:09.101Z,1030.86
2019-03-21T00:42:09.702Z,1030.92
2019-03-21T00:42:10.300Z,1030.95
2019-03-21T00:42:10.900Z,1030.97
2019-03-21T00:42:11.510Z,1031.00
2019-03-21T00:42:12.100Z,1030.99
2019-03-21T00:43:06.156Z,1030.82
2019-03-21T00:43:06.755Z,1030.80
2019-03-21T00:43:07.372Z,1030.91
2019-03-21T00:43:07.953Z,1030.93
2019-03-21T00:43:08.553Z,1030.96
2019-03-21T00:43:09.156Z,1030.99
2019-03-21T00:43:09.753Z,1031.00
2019-03-21T00:44:03.809Z,1030.79
2019-03-21T00:44:04.421Z,1030.81
2019-03-21T00:44:05.004Z,1030.86
2019-03-21T00:44:05.604Z,1030.88
2019-03-21T00:44:06.204Z,1030.93
2019-03-21T00:44:17.555Z,1030.94
2019-03-21T00:44:17.579Z,1030.95
2019-03-21T00:45:01.459Z,1030.77
2019-03-21T00:45:02.060Z,1030.80
2019-03-21T00:45:02.658Z,1030.88
2019-03-21T00:45:03.266Z,1030.89
2019-03-21T00:45:03.857Z,1030.95
2019-03-21T00:45:04.457Z,1030.97
2019-03-21T00:45:05.059Z,1030.98
2019-03-21T00:45:59.136Z,1030.81
2019-03-21T00:45:59.708Z,1030.80
2019-03-21T00:46:00.309Z,1030.85
2019-03-21T00:46:00.920Z,1030.88
2019-03-21T00:46:01.507Z,1030.92
2019-03-21T00:46:02.109Z,1030.94
2019-03-21T00:46:02.706Z,1030.96
2019-03-21T00:46:56.764Z,1030.77
2019-03-21T00:46:57.361Z,1030.82
2019-03-21T00:46:57.962Z,1030.84
2019-03-21T00:46:58.562Z,1030.87
2019-03-21T00:46:59.160Z,1030.90
2019-03-21T00:46:59.764Z,1030.93
2019-03-21T00:47:00.358Z,1030.97
2019-03-21T00:47:54.417Z,1030.79
2019-03-21T00:47:55.014Z,1030.83
2019-03-21T00:47:55.616Z,1030.86
2019-03-21T00:47:56.211Z,1030.93
2019-03-21T00:47:56.811Z,1030.94
2019-03-21T00:47:57.412Z,1030.96
2019-03-21T00:47:58.012Z,1031.00
2019-03-21T00:48:52.069Z,1030.79
2019-03-21T00:48:52.664Z,1030.80
2019-03-21T00:48:53.264Z,1030.88
2019-03-21T00:48:53.864Z,1030.89
2019-03-21T00:48:54.464Z,1030.95
2019-03-21T00:48:55.065Z,1030.95
2019-03-21T00:48:55.663Z,1030.96
2019-03-21T00:49:49.721Z,1030.77
2019-03-21T00:49:50.321Z,1030.81
2019-03-21T00:49:50.917Z,1030.89
2019-03-21T00:49:51.515Z,1030.89
2019-03-21T00:49:52.114Z,1030.91
2019-03-21T00:49:52.716Z,1030.93
2019-03-21T00:49:53.315Z,1030.95
2019-03-21T00:50:47.396Z,1030.78
2019-03-21T00:50:47.969Z,1030.80
2019-03-21T00:50:48.567Z,1030.84
2019-03-21T00:50:49.167Z,1030.90
2019-03-21T00:50:49.772Z,1030.91
2019-03-21T00:50:50.371Z,1030.96
2019-03-21T00:50:50.965Z,1030.97
2019-03-21T00:51:45.023Z,1030.80
2019-03-21T00:51:45.619Z,1030.84
2019-03-21T00:51:46.220Z,1030.86
2019-03-21T00:51:46.821Z,1030.90
2019-03-21T00:51:47.420Z,1030.92
2019-03-21T00:51:48.019Z,1030.95
2019-03-21T00:51:48.620Z,1030.94
2019-03-21T00:52:42.676Z,1030.79
2019-03-21T00:52:43.271Z,1030.82
2019-03-21T00:52:43.871Z,1030.87
2019-03-21T00:52:44.471Z,1030.89
2019-03-21T00:52:45.070Z,1030.91
2019-03-21T00:52:45.670Z,1030.94
2019-03-21T00:52:46.270Z,1030.94
2019-03-21T00:53:40.326Z,1030.78
2019-03-21T00:53:40.922Z,1030.83
2019-03-21T00:53:41.524Z,1030.84
2019-03-21T00:53:42.123Z,1030.87
2019-03-21T00:53:42.722Z,1030.90
2019-03-21T00:53:43.322Z,1030.92
2019-03-21T00:53:43.922Z,1030.92
2019-03-21T00:54:37.978Z,1030.79
2019-03-21T00:54:38.575Z,1030.80
2019-03-21T00:54:39.174Z,1030.85
2019-03-21T00:54:39.774Z,1030.85
2019-03-21T00:54:40.374Z,1030.90
2019-03-21T00:54:40.977Z,1030.90
2019-03-21T00:54:41.574Z,1030.91
2019-03-21T00:55:35.654Z,1030.78
2019-03-21T00:55:36.225Z,1030.79
2019-03-21T00:55:36.825Z,1030.84
2019-03-21T00:55:37.426Z,1030.84
2019-03-21T00:55:38.026Z,1030.85
2019-03-21T00:55:38.626Z,1030.89
2019-03-21T00:55:39.225Z,1030.88
2019-03-21T00:56:33.281Z,1030.79
2019-03-21T00:56:33.877Z,1030.79
2019-03-21T00:56:34.479Z,1030.83
2019-03-21T00:56:35.084Z,1030.85
2019-03-21T00:56:35.677Z,1030.90
2019-03-21T00:56:36.278Z,1030.89
2019-03-21T00:56:36.877Z,1030.88
2019-03-21T00:57:30.933Z,1030.75
2019-03-21T00:57:31.529Z,1030.79
2019-03-21T00:57:32.184Z,1030.81
2019-03-21T00:57:32.729Z,1030.85
2019-03-21T00:57:33.328Z,1030.84
2019-03-21T00:57:33.929Z,1030.89
2019-03-21T00:57:34.529Z,1030.90
2019-03-21T00:58:28.593Z,1030.75
2019-03-21T00:58:29.183Z,1030.76
2019-03-21T00:58:29.784Z,1030.82
2019-03-21T00:58:30.381Z,1030.80
2019-03-21T00:58:30.983Z,1030.85
2019-03-21T00:58:31.581Z,1030.85
2019-03-21T00:58:32.180Z,1030.84
2019-03-21T00:59:25.725Z,1030.78
2019-03-21T00:59:26.325Z,1030.79
2019-03-21T00:59:26.922Z,1030.81
2019-03-21T00:59:27.524Z,1030.83
2019-03-21T00:59:28.123Z,1030.81
2019-03-21T00:59:28.721Z,1030.88
2019-03-21T00:59:29.321Z,1030.88
2019-03-21T00:59:29.921Z,1030.88
2019-03-21T01:00:23.989Z,1030.71
2019-03-21T01:00:24.594Z,1030.73
2019-03-21T01:00:25.187Z,1030.77
2019-03-21T01:00:25.791Z,1030.79
2019-03-21T01:00:26.386Z,1030.79
2019-03-21T01:00:26.987Z,1030.84
2019-03-21T01:00:27.587Z,1030.82
2019-03-21T01:01:21.673Z,1030.73
2019-03-21T01:01:22.242Z,1030.72
2019-03-21T01:01:22.844Z,1030.77
2019-03-21T01:01:23.444Z,1030.80
2019-03-21T01:01:24.040Z,1030.81
2019-03-21T01:01:24.639Z,1030.82
2019-03-21T01:01:25.239Z,1030.84
2019-03-21T01:02:19.294Z,1030.74
2019-03-21T01:02:19.893Z,1030.77
2019-03-21T01:02:20.494Z,1030.79
2019-03-21T01:02:21.091Z,1030.80
2019-03-21T01:02:21.690Z,1030.86
2019-03-21T01:02:22.290Z,1030.83
2019-03-21T01:02:22.891Z,1030.85
2019-03-21T01:03:16.434Z,1030.74
2019-03-21T01:03:17.034Z,1030.76
2019-03-21T01:03:17.630Z,1030.78
2019-03-21T01:03:18.228Z,1030.78
2019-03-21T01:03:18.830Z,1030.81
2019-03-21T01:03:19.430Z,1030.84
2019-03-21T01:03:20.029Z,1030.86
2019-03-21T01:03:20.632Z,1030.85
2019-03-21T01:04:14.704Z,1030.72
2019-03-21T01:04:15.296Z,1030.74
2019-03-21T01:04:15.897Z,1030.79
2019-03-21T01:04:16.496Z,1030.80
2019-03-21T01:04:17.094Z,1030.82
2019-03-21T01:04:17.696Z,1030.82
2019-03-21T01:04:18.296Z,1030.89
2019-03-21T01:05:12.352Z,1030.76
2019-03-21T01:05:12.948Z,1030.76
2019-03-21T01:05:13.549Z,1030.79
2019-03-21T01:05:14.149Z,1030.79
2019-03-21T01:05:14.749Z,1030.82
2019-03-21T01:05:15.349Z,1030.82
2019-03-21T01:05:15.949Z,1030.85
2019-03-21T01:06:10.026Z,1030.76
2019-03-21T01:06:10.599Z,1030.80
2019-03-21T01:06:11.199Z,1030.81
2019-03-21T01:06:11.799Z,1030.85
2019-03-21T01:06:12.400Z,1030.84
2019-03-21T01:06:13.000Z,1030.84
2019-03-21T01:06:13.598Z,1030.87
2019-03-21T01:07:07.655Z,1030.77
2019-03-21T01:07:08.252Z,1030.75
2019-03-21T01:07:08.850Z,1030.80
2019-03-21T01:07:09.451Z,1030.80
2019-03-21T01:07:10.053Z,1030.79
2019-03-21T01:07:10.651Z,1030.84
2019-03-21T01:07:11.252Z,1030.87
2019-03-21T01:08:05.307Z,1030.80
2019-03-21T01:08:05.903Z,1030.79
2019-03-21T01:08:06.504Z,1030.82
2019-03-21T01:08:07.103Z,1030.84
2019-03-21T01:08:07.703Z,1030.82
2019-03-21T01:08:08.304Z,1030.82
2019-03-21T01:08:08.903Z,1030.87
2019-03-21T01:09:02.959Z,1030.79
2019-03-21T01:09:03.555Z,1030.79
2019-03-21T01:09:04.155Z,1030.85
2019-03-21T01:09:04.754Z,1030.82
2019-03-21T01:09:05.354Z,1030.82
2019-03-21T01:09:05.955Z,1030.85
2019-03-21T01:09:06.553Z,1030.87
2019-03-21T01:10:00.614Z,1030.77
2019-03-21T01:10:01.206Z,1030.75
2019-03-21T01:10:01.808Z,1030.79
2019-03-21T01:10:02.408Z,1030.81
2019-03-21T01:10:03.006Z,1030.82
2019-03-21T01:10:03.611Z,1030.84
2019-03-21T01:10:04.205Z,1030.86
2019-03-21T01:10:58.262Z,1030.77
2019-03-21T01:10:58.858Z,1030.75
2019-03-21T01:10:59.458Z,1030.81
2019-03-21T01:11:00.062Z,1030.79
2019-03-21T01:11:00.657Z,1030.84
2019-03-21T01:11:01.258Z,1030.80
2019-03-21T01:11:01.861Z,1030.80
2019-03-21T01:11:55.940Z,1030.73
2019-03-21T01:11:56.511Z,1030.76
2019-03-21T01:11:57.110Z,1030.76
2019-03-21T01:11:57.709Z,1030.76
2019-03-21T01:11:58.309Z,1030.79
2019-03-21T01:11:58.911Z,1030.81
2019-03-21T01:11:59.512Z,1030.84
2019-03-21T01:12:53.566Z,1030.72
2019-03-21T01:12:54.164Z,1030.72
2019-03-21T01:12:54.762Z,1030.74
2019-03-21T01:12:55.362Z,1030.74
2019-03-21T01:12:55.961Z,1030.78
2019-03-21T01:12:56.563Z,1030.80
2019-03-21T01:12:57.163Z,1030.83
2019-03-21T01:13:51.216Z,1030.72
2019-03-21T01:13:51.815Z,1030.70
2019-03-21T01:13:52.416Z,1030.76
2019-03-21T01:13:53.013Z,1030.78
2019-03-21T01:13:53.619Z,1030.76
2019-03-21T01:13:54.213Z,1030.78
2019-03-21T01:13:54.813Z,1030.83
2019-03-21T01:14:48.870Z,1030.72
2019-03-21T01:14:49.464Z,1030.72
2019-03-21T01:14:50.065Z,1030.72
2019-03-21T01:14:50.672Z,1030.78
2019-03-21T01:14:51.265Z,1030.79
2019-03-21T01:14:51.865Z,1030.76
2019-03-21T01:14:52.465Z,1030.84
2019-03-21T01:15:46.520Z,1030.66
2019-03-21T01:15:47.116Z,1030.67
2019-03-21T01:15:47.719Z,1030.71
2019-03-21T01:15:48.316Z,1030.69
2019-03-21T01:15:48.916Z,1030.74
2019-03-21T01:15:49.522Z,1030.75
2019-03-21T01:15:50.118Z,1030.77
2019-03-21T01:16:44.196Z,1030.71
2019-03-21T01:16:44.769Z,1030.72
2019-03-21T01:16:45.367Z,1030.76
2019-03-21T01:16:45.972Z,1030.70
2019-03-21T01:16:46.568Z,1030.77
2019-03-21T01:16:47.168Z,1030.80
2019-03-21T01:16:47.767Z,1030.80
2019-03-21T01:17:41.824Z,1030.70
2019-03-21T01:17:42.421Z,1030.74
2019-03-21T01:17:43.020Z,1030.75
2019-03-21T01:17:43.621Z,1030.75
2019-03-21T01:17:44.221Z,1030.73
2019-03-21T01:17:44.824Z,1030.74
2019-03-21T01:17:45.420Z,1030.79
2019-03-21T01:18:39.478Z,1030.71
2019-03-21T01:18:40.072Z,1030.70
2019-03-21T01:18:40.671Z,1030.72
2019-03-21T01:18:41.272Z,1030.72
2019-03-21T01:18:41.871Z,1030.76
2019-03-21T01:18:42.478Z,1030.75
2019-03-21T01:18:43.073Z,1030.79
2019-03-21T01:19:37.137Z,1030.71
2019-03-21T01:19:37.725Z,1030.73
2019-03-21T01:19:38.326Z,1030.69
2019-03-21T01:19:38.924Z,1030.74
2019-03-21T01:19:39.523Z,1030.78
2019-03-21T01:19:40.124Z,1030.77
2019-03-21T01:19:40.725Z,1030.77
2019-03-21T01:20:34.782Z,1030.70
2019-03-21T01:20:35.376Z,1030.69
2019-03-21T01:20:35.974Z,1030.72
2019-03-21T01:20:36.577Z,1030.76
2019-03-21T01:20:37.178Z,1030.76
2019-03-21T01:20:37.776Z,1030.79
2019-03-21T01:20:38.378Z,1030.77
2019-03-21T01:21:32.464Z,1030.70
2019-03-21T01:21:33.030Z,1030.73
2019-03-21T01:21:33.629Z,1030.75
2019-03-21T01:21:34.227Z,1030.78
2019-03-21T01:21:34.827Z,1030.79
2019-03-21T01:21:35.431Z,1030.78
2019-03-21T01:21:36.030Z,1030.78
2019-03-21T01:22:30.084Z,1030.70
2019-03-21T01:22:30.683Z,1030.72
2019-03-21T01:22:31.280Z,1030.72
2019-03-21T01:22:31.880Z,1030.79
2019-03-21T01:22:32.479Z,1030.80
2019-03-21T01:22:33.079Z,1030.76
2019-03-21T01:22:33.682Z,1030.80
2019-03-21T01:23:27.734Z,1030.70
2019-03-21T01:23:28.332Z,1030.71
2019-03-21T01:23:28.934Z,1030.73
2019-03-21T01:23:29.531Z,1030.77
2019-03-21T01:23:30.131Z,1030.76
2019-03-21T01:23:30.733Z,1030.79
2019-03-21T01:23:31.332Z,1030.79
2019-03-21T01:24:24.875Z,1030.68
2019-03-21T01:24:25.474Z,1030.70
2019-03-21T01:24:26.072Z,1030.70
2019-03-21T01:24:26.672Z,1030.73
2019-03-21T01:24:27.272Z,1030.74
2019-03-21T01:24:27.871Z,1030.74
2019-03-21T01:24:28.473Z,1030.76
2019-03-21T01:24:29.072Z,1030.77
2019-03-21T01:25:23.142Z,1030.67
2019-03-21T01:25:23.737Z,1030.69
2019-03-21T01:25:24.337Z,1030.73
2019-03-21T01:25:24.937Z,1030.74
2019-03-21T01:25:25.536Z,1030.77
2019-03-21T01:25:26.137Z,1030.73
2019-03-21T01:25:26.738Z,1030.79
2019-03-21T01:26:20.791Z,1030.68
2019-03-21T01:26:21.389Z,1030.68
2019-03-21T01:26:21.990Z,1030.71
2019-03-21T01:26:22.589Z,1030.75
2019-03-21T01:26:23.189Z,1030.73
2019-03-21T01:26:23.791Z,1030.76
2019-03-21T01:26:24.389Z,1030.76
2019-03-21T01:27:18.468Z,1030.66
2019-03-21T01:27:19.042Z,1030.66
2019-03-21T01:27:19.641Z,1030.68
2019-03-21T01:27:20.242Z,1030.70
2019-03-21T01:27:20.840Z,1030.72
2019-03-21T01:27:21.441Z,1030.70
2019-03-21T01:27:22.041Z,1030.76
2019-03-21T01:28:16.097Z,1030.63
2019-03-21T01:28:16.696Z,1030.61
2019-03-21T01:28:17.294Z,1030.64
2019-03-21T01:28:17.892Z,1030.66
2019-03-21T01:28:18.493Z,1030.67
2019-03-21T01:28:19.093Z,1030.68
2019-03-21T01:28:19.693Z,1030.72
2019-03-21T01:29:13.237Z,1030.62
2019-03-21T01:29:13.833Z,1030.59
2019-03-21T01:29:14.434Z,1030.65
2019-03-21T01:29:15.034Z,1030.65
2019-03-21T01:29:15.636Z,1030.70
2019-03-21T01:29:16.231Z,1030.69
2019-03-21T01:29:16.833Z,1030.71
2019-03-21T01:29:17.431Z,1030.72
2019-03-21T01:30:10.990Z,1030.64
2019-03-21T01:30:11.592Z,1030.65
2019-03-21T01:30:12.188Z,1030.66
2019-03-21T01:30:12.788Z,1030.68
2019-03-21T01:30:13.386Z,1030.68
2019-03-21T01:30:13.988Z,1030.71
2019-03-21T01:30:14.589Z,1030.68
2019-03-21T01:30:15.187Z,1030.75
2019-03-21T01:31:09.256Z,1030.66
2019-03-21T01:31:09.852Z,1030.66
2019-03-21T01:31:10.452Z,1030.69
2019-03-21T01:31:11.051Z,1030.70
2019-03-21T01:31:11.651Z,1030.72
2019-03-21T01:31:12.252Z,1030.69
2019-03-21T01:31:12.850Z,1030.69
2019-03-21T01:32:06.934Z,1030.66
2019-03-21T01:32:07.505Z,1030.66
2019-03-21T01:32:08.159Z,1030.67
2019-03-21T01:32:08.704Z,1030.71
2019-03-21T01:32:09.304Z,1030.74
2019-03-21T01:32:09.904Z,1030.73
2019-03-21T01:32:10.503Z,1030.78
2019-03-21T01:33:04.562Z,1030.68
2019-03-21T01:33:05.156Z,1030.68
2019-03-21T01:33:05.754Z,1030.68
2019-03-21T01:33:06.356Z,1030.72
2019-03-21T01:33:06.955Z,1030.72
2019-03-21T01:33:07.558Z,1030.77
2019-03-21T01:33:08.155Z,1030.74
2019-03-21T01:34:13.886Z,1030.71
2019-03-21T01:34:14.480Z,1030.72
2019-03-21T01:34:15.081Z,1030.70
2019-03-21T01:34:15.682Z,1030.71
2019-03-21T01:34:16.281Z,1030.74
2019-03-21T01:34:16.883Z,1030.76
2019-03-21T01:34:17.479Z,1030.79
2019-03-21T01:35:11.541Z,1030.70
2019-03-21T01:35:12.133Z,1030.69
2019-03-21T01:35:12.732Z,1030.67
2019-03-21T01:35:13.334Z,1030.71
2019-03-21T01:35:13.933Z,1030.71
2019-03-21T01:35:14.532Z,1030.79
2019-03-21T01:35:15.132Z,1030.79
2019-03-21T01:36:09.191Z,1030.68
2019-03-21T01:36:09.786Z,1030.65
2019-03-21T01:36:10.385Z,1030.70
2019-03-21T01:36:10.984Z,1030.76
2019-03-21T01:36:11.586Z,1030.77
2019-03-21T01:36:12.184Z,1030.75
2019-03-21T01:36:12.783Z,1030.76
2019-03-21T01:37:06.867Z,1030.72
2019-03-21T01:37:07.437Z,1030.71
2019-03-21T01:37:08.035Z,1030.74
2019-03-21T01:37:08.635Z,1030.74
2019-03-21T01:37:09.236Z,1030.73
2019-03-21T01:37:09.835Z,1030.77
2019-03-21T01:37:10.435Z,1030.78
2019-03-21T01:38:03.982Z,1030.72
2019-03-21T01:38:04.578Z,1030.71
2019-03-21T01:38:05.177Z,1030.69
2019-03-21T01:38:05.779Z,1030.74
2019-03-21T01:38:06.377Z,1030.72
2019-03-21T01:38:06.976Z,1030.76
2019-03-21T01:38:07.578Z,1030.78
2019-03-21T01:38:08.177Z,1030.80
2019-03-21T01:39:01.736Z,1030.69
2019-03-21T01:39:02.331Z,1030.69
2019-03-21T01:39:02.932Z,1030.72
2019-03-21T01:39:03.535Z,1030.74
2019-03-21T01:39:04.135Z,1030.76
2019-03-21T01:39:04.730Z,1030.74
2019-03-21T01:39:05.331Z,1030.75
2019-03-21T01:39:05.931Z,1030.79
2019-03-21T01:40:00.001Z,1030.70
2019-03-21T01:40:00.596Z,1030.69
2019-03-21T01:40:01.196Z,1030.71
2019-03-21T01:40:01.795Z,1030.71
2019-03-21T01:40:02.396Z,1030.73
2019-03-21T01:40:02.998Z,1030.73
2019-03-21T01:40:03.595Z,1030.77
2019-03-21T01:40:57.652Z,1030.62
2019-03-21T01:40:58.247Z,1030.68
2019-03-21T01:40:58.846Z,1030.69
2019-03-21T01:40:59.451Z,1030.71
2019-03-21T01:41:00.048Z,1030.70
2019-03-21T01:41:00.647Z,1030.72
2019-03-21T01:41:01.250Z,1030.73
2019-03-21T01:41:55.328Z,1030.61
2019-03-21T01:41:55.899Z,1030.63
2019-03-21T01:41:56.499Z,1030.66
2019-03-21T01:41:57.099Z,1030.69
2019-03-21T01:41:57.699Z,1030.72
2019-03-21T01:41:58.300Z,1030.71
2019-03-21T01:41:58.899Z,1030.71
2019-03-21T01:42:52.954Z,1030.62
2019-03-21T01:42:53.552Z,1030.60
2019-03-21T01:42:54.152Z,1030.67
2019-03-21T01:42:54.750Z,1030.66
2019-03-21T01:42:55.941Z,1030.71
2019-03-21T01:42:56.434Z,1030.69
2019-03-21T01:44:10.474Z,1030.57
2019-03-21T01:44:11.069Z,1030.60
2019-03-21T01:44:11.666Z,1030.66
2019-03-21T01:44:12.267Z,1030.66
2019-03-21T01:44:12.884Z,1030.64
2019-03-21T01:44:13.469Z,1030.66
2019-03-21T01:44:14.069Z,1030.65
2019-03-21T01:45:09.045Z,1030.60
2019-03-21T01:45:09.642Z,1030.59
2019-03-21T01:45:10.241Z,1030.63
2019-03-21T01:45:10.841Z,1030.63
2019-03-21T01:45:11.442Z,1030.65
2019-03-21T01:45:12.042Z,1030.67
2019-03-21T01:46:06.594Z,1030.57
2019-03-21T01:46:07.191Z,1030.56
2019-03-21T01:46:07.790Z,1030.60
2019-03-21T01:46:08.397Z,1030.63
2019-03-21T01:46:08.991Z,1030.63
2019-03-21T01:46:09.590Z,1030.63
2019-03-21T01:46:10.192Z,1030.64
2019-03-21T01:47:04.292Z,1030.57
2019-03-21T01:47:04.848Z,1030.55
2019-03-21T01:47:05.444Z,1030.59
2019-03-21T01:47:06.045Z,1030.60
2019-03-21T01:47:06.643Z,1030.64
2019-03-21T01:47:07.243Z,1030.65
2019-03-21T01:47:07.841Z,1030.66
2019-03-21T01:48:01.897Z,1030.60
2019-03-21T01:48:02.496Z,1030.59
2019-03-21T01:48:03.102Z,1030.58
2019-03-21T01:48:03.697Z,1030.62
2019-03-21T01:48:04.306Z,1030.67
2019-03-21T01:48:04.903Z,1030.63
2019-03-21T01:48:05.494Z,1030.67
2019-03-21T01:49:00.575Z,1030.60
2019-03-21T01:49:01.170Z,1030.60
2019-03-21T01:49:01.770Z,1030.62
2019-03-21T01:49:02.370Z,1030.60
2019-03-21T01:49:02.974Z,1030.62
2019-03-21T01:49:03.594Z,1030.65
2019-03-21T01:49:58.124Z,1030.59
2019-03-21T01:49:58.720Z,1030.62
2019-03-21T01:49:59.319Z,1030.59
2019-03-21T01:49:59.919Z,1030.60
2019-03-21T01:50:00.520Z,1030.63
2019-03-21T01:50:01.120Z,1030.65
2019-03-21T01:50:01.720Z,1030.66
2019-03-21T01:50:55.780Z,1030.61
2019-03-21T01:50:56.381Z,1030.62
2019-03-21T01:50:56.989Z,1030.63
2019-03-21T01:50:57.570Z,1030.65
2019-03-21T01:50:58.169Z,1030.66
2019-03-21T01:50:58.771Z,1030.69
2019-03-21T01:50:59.371Z,1030.68
2019-03-21T01:52:00.389Z,1030.58
2019-03-21T01:52:00.985Z,1030.58
2019-03-21T01:52:01.586Z,1030.64
2019-03-21T01:52:02.186Z,1030.63
2019-03-21T01:52:02.784Z,1030.64
2019-03-21T01:52:03.397Z,1030.64
2019-03-21T01:52:04.005Z,1030.68
2019-03-21T01:52:04.584Z,1030.68
2019-03-21T01:52:05.185Z,1030.69
2019-03-21T01:52:05.785Z,1030.71
2019-03-21T01:52:06.393Z,1030.69
2019-03-21T01:52:06.992Z,1030.72
2019-03-21T01:53:00.527Z,1030.60
2019-03-21T01:53:01.097Z,1030.62
2019-03-21T01:53:01.696Z,1030.65
2019-03-21T01:53:02.297Z,1030.63
2019-03-21T01:53:02.898Z,1030.62
2019-03-21T01:53:03.495Z,1030.66
2019-03-21T01:53:04.096Z,1030.68
2019-03-21T01:53:04.698Z,1030.69
2019-03-21T01:53:58.771Z,1030.57
2019-03-21T01:53:59.367Z,1030.56
2019-03-21T01:53:59.961Z,1030.57
2019-03-21T01:54:00.562Z,1030.61
2019-03-21T01:54:01.160Z,1030.66
2019-03-21T01:54:01.761Z,1030.61
2019-03-21T01:54:02.362Z,1030.65
2019-03-21T01:54:56.419Z,1030.61
2019-03-21T01:54:57.014Z,1030.60
2019-03-21T01:54:57.616Z,1030.62
2019-03-21T01:54:58.214Z,1030.64
2019-03-21T01:54:58.814Z,1030.62
2019-03-21T01:54:59.415Z,1030.69
2019-03-21T01:55:00.013Z,1030.66
2019-03-21T01:55:54.068Z,1030.58
2019-03-21T01:55:54.666Z,1030.60
2019-03-21T01:55:55.264Z,1030.60
2019-03-21T01:55:55.872Z,1030.63
2019-03-21T01:55:56.479Z,1030.62
2019-03-21T01:55:57.067Z,1030.65
2019-03-21T01:55:57.666Z,1030.64
2019-03-21T01:56:51.719Z,1030.56
2019-03-21T01:56:52.316Z,1030.58
2019-03-21T01:56:52.917Z,1030.55
2019-03-21T01:56:53.522Z,1030.58
2019-03-21T01:56:54.115Z,1030.60
2019-03-21T01:56:54.716Z,1030.64
2019-03-21T01:56:55.316Z,1030.63
2019-03-21T01:57:49.407Z,1030.58
2019-03-21T01:57:49.968Z,1030.59
2019-03-21T01:57:50.574Z,1030.60
2019-03-21T01:57:51.170Z,1030.60
2019-03-21T01:57:51.768Z,1030.61
2019-03-21T01:57:52.368Z,1030.64
2019-03-21T01:57:53.004Z,1030.64
2019-03-21T01:58:47.025Z,1030.57
2019-03-21T01:58:47.622Z,1030.58
2019-03-21T01:58:48.226Z,1030.58
2019-03-21T01:58:48.826Z,1030.59
2019-03-21T01:58:49.420Z,1030.60
2019-03-21T01:58:50.020Z,1030.61
2019-03-21T01:58:50.619Z,1030.64
2019-03-21T01:59:57.281Z,1030.55
2019-03-21T01:59:57.873Z,1030.54
2019-03-21T01:59:58.476Z,1030.56
2019-03-21T01:59:59.068Z,1030.65
2019-03-21T01:59:59.669Z,1030.62
2019-03-21T02:00:00.439Z,1030.62
2019-03-21T02:00:00.868Z,1030.65
2019-03-21T02:00:54.926Z,1030.59
2019-03-21T02:00:55.519Z,1030.61
2019-03-21T02:00:56.120Z,1030.59
2019-03-21T02:00:56.720Z,1030.63
2019-03-21T02:00:57.319Z,1030.66
2019-03-21T02:00:57.918Z,1030.64
2019-03-21T02:00:58.520Z,1030.65
2019-03-21T02:01:52.574Z,1030.59
2019-03-21T02:01:53.171Z,1030.60
2019-03-21T02:01:53.772Z,1030.62
2019-03-21T02:01:54.372Z,1030.62
2019-03-21T02:01:54.970Z,1030.67
2019-03-21T02:01:55.570Z,1030.63
2019-03-21T02:01:56.170Z,1030.66
2019-03-21T02:02:51.182Z,1030.61
2019-03-21T02:02:51.759Z,1030.65
2019-03-21T02:02:52.343Z,1030.63
2019-03-21T02:02:52.942Z,1030.63
2019-03-21T02:02:53.545Z,1030.65
2019-03-21T02:02:54.142Z,1030.65
2019-03-21T02:02:54.744Z,1030.64
2019-03-21T02:04:09.076Z,1030.58
2019-03-21T02:04:09.672Z,1030.60
2019-03-21T02:04:10.272Z,1030.61
2019-03-21T02:04:10.871Z,1030.66
2019-03-21T02:04:11.471Z,1030.64
2019-03-21T02:04:12.072Z,1030.70
2019-03-21T02:05:06.625Z,1030.64
2019-03-21T02:05:07.220Z,1030.59
2019-03-21T02:05:07.821Z,1030.61
2019-03-21T02:05:08.426Z,1030.64
2019-03-21T02:05:09.019Z,1030.66
2019-03-21T02:05:09.620Z,1030.65
2019-03-21T02:05:10.219Z,1030.65
2019-03-21T02:06:04.276Z,1030.60
2019-03-21T02:06:04.874Z,1030.60
2019-03-21T02:06:05.473Z,1030.60